Time;durP1;ratioP1;P1;durP2;ratioP2;P2;SDS_P1;SDS_P2;PMS_P1;PMS_P2;Temp;Humidity;BMP_temperature;BMP_pressure;BME280_temperature;BME280_humidity;BME280_pressure;Samples;Min_cycle;Max_cycle;Signal;HPM_P1;HPM_P2
2023/11/24 00:01:47;;;;;;;30.03;5.13;;;;;;;5.97;100.00;101058.78;4987892;28;20443;-77
2023/11/24 00:04:12;;;;;;;26.67;4.57;;;;;;;6.88;100.00;101220.44;5002253;28;20517;-78
2023/11/24 00:06:38;;;;;;;18.27;3.20;;;;;;;6.50;100.00;101172.09;5005002;28;20444;-76
2023/11/24 00:09:03;;;;;;;26.00;4.67;;;;;;;8.20;100.00;101434.88;5004399;28;20265;-78
2023/11/24 00:11:29;;;;;;;16.80;3.53;;;;;;;6.05;100.00;101074.78;4989001;28;20185;-76
2023/11/24 00:13:54;;;;;;;27.33;4.03;;;;;;;7.60;100.00;101370.09;5004145;28;20208;-77
2023/11/24 00:16:20;;;;;;;19.50;3.30;;;;;;;5.54;100.00;101027.84;5002473;28;20189;-76
2023/11/24 00:18:46;;;;;;;17.63;3.00;;;;;;;4.73;100.00;100931.63;4989230;28;20177;-75
2023/11/24 00:21:12;;;;;;;18.53;4.13;;;;;;;6.00;100.00;101161.47;5004824;28;21755;-77
2023/11/24 00:23:38;;;;;;;16.23;3.27;;;;;;;5.64;100.00;101082.63;5005201;28;20205;-76
2023/11/24 00:26:06;;;;;;;16.03;2.87;;;;;;;5.32;100.00;101015.94;4987237;28;20193;-77
2023/11/24 00:28:36;;;;;;;12.60;3.07;;;;;;;6.38;100.00;101217.88;4991640;28;20887;-77
2023/11/24 00:31:03;;;;;;;17.20;3.40;;;;;;;7.88;100.00;101461.41;5001598;28;20437;-76
2023/11/24 00:33:29;;;;;;;16.47;3.27;;;;;;;5.85;100.00;101169.19;5003643;28;21114;-77
2023/11/24 00:35:55;;;;;;;15.83;3.43;;;;;;;6.31;100.00;101202.53;5002491;28;20448;-78
2023/11/24 00:38:20;;;;;;;19.47;3.67;;;;;;;5.72;100.00;101084.47;4989246;28;20689;-77
2023/11/24 00:40:46;;;;;;;16.70;4.37;;;;;;;5.29;100.00;101056.16;5003723;28;20440;-78
2023/11/24 00:43:11;;;;;;;7.90;1.90;;;;;;;6.17;100.00;101175.69;4983927;28;20211;-76
2023/11/24 00:45:37;;;;;;;10.53;2.37;;;;;;;4.82;100.00;100979.50;4999356;28;20596;-77
2023/11/24 00:48:05;;;;;;;15.40;2.43;;;;;;;6.15;100.00;101146.53;5003715;28;20208;-76
2023/11/24 00:50:32;;;;;;;11.63;2.80;;;;;;;6.06;100.00;101195.44;4984810;28;20196;-77
2023/11/24 00:53:00;;;;;;;17.23;3.60;;;;;;;5.81;100.00;101160.69;4984870;28;20439;-76
2023/11/24 00:55:26;;;;;;;18.50;3.60;;;;;;;5.41;100.00;101100.16;5002973;28;20439;-76
2023/11/24 00:57:52;;;;;;;25.47;3.30;;;;;;;5.80;100.00;101169.66;4985157;28;22688;-75
2023/11/24 01:00:18;;;;;;;22.60;4.40;;;;;;;6.39;100.00;101247.00;4989911;28;20436;-76
2023/11/24 01:02:43;;;;;;;20.00;4.73;;;;;;;6.29;100.00;101240.97;4987698;28;20208;-76
2023/11/24 01:05:09;;;;;;;21.63;3.23;;;;;;;6.40;100.00;101254.00;5002371;28;20298;-76
2023/11/24 01:07:35;;;;;;;19.40;3.80;;;;;;;4.90;100.00;100945.81;4991309;28;20201;-75
2023/11/24 01:10:00;;;;;;;14.63;3.57;;;;;;;6.89;100.00;101285.31;5003564;28;20272;-76
2023/11/24 01:12:26;;;;;;;13.13;3.37;;;;;;;6.30;100.00;101200.84;5003565;28;20272;-76
2023/11/24 01:14:51;;;;;;;14.30;2.97;;;;;;;6.65;100.00;101211.41;5002577;28;20463;-76
2023/11/24 01:17:17;;;;;;;14.17;2.20;;;;;;;6.09;100.00;101137.34;5002969;28;20689;-76
2023/11/24 01:19:42;;;;;;;11.67;2.20;;;;;;;5.66;100.00;101122.38;5004281;28;20192;-76
2023/11/24 01:22:08;;;;;;;24.03;2.87;;;;;;;5.08;100.00;100998.91;5001735;28;20193;-76
2023/11/24 01:24:34;;;;;;;11.10;2.00;;;;;;;6.72;100.00;101258.59;5002794;28;20215;-76
2023/11/24 01:27:02;;;;;;;13.30;2.60;;;;;;;5.07;100.00;100973.31;4985363;28;20948;-76
2023/11/24 01:29:28;;;;;;;13.07;1.93;;;;;;;4.88;100.00;100973.56;5006335;28;20471;-75
2023/11/24 01:31:54;;;;;;;10.40;1.77;;;;;;;4.95;100.00;101012.63;4988402;28;20442;-76
2023/11/24 01:34:20;;;;;;;10.93;1.73;;;;;;;5.24;100.00;101046.03;5005505;28;20483;-77
2023/11/24 01:36:45;;;;;;;15.13;2.77;;;;;;;5.04;100.00;101026.81;5007576;28;20215;-75
2023/11/24 01:39:12;;;;;;;8.50;1.90;;;;;;;6.71;100.00;101296.06;5006756;28;20272;-76
2023/11/24 01:41:40;;;;;;;11.10;2.20;;;;;;;7.30;100.00;101394.75;5006807;28;20192;-77
2023/11/24 01:44:06;;;;;;;17.03;3.30;;;;;;;4.67;100.00;100939.41;5005043;28;20527;-77
2023/11/24 01:46:33;;;;;;;16.67;3.23;;;;;;;4.49;100.00;100900.44;4991954;28;20878;-76
2023/11/24 01:48:59;;;;;;;14.97;2.67;;;;;;;4.72;100.00;100931.78;5007738;28;20472;-77
2023/11/24 01:51:25;;;;;;;26.57;2.83;;;;;;;5.02;100.00;100986.25;4987281;28;20457;-75
2023/11/24 01:53:51;;;;;;;14.20;2.80;;;;;;;4.44;100.00;100896.59;4991546;28;20467;-76
2023/11/24 01:56:18;;;;;;;15.70;3.20;;;;;;;6.05;100.00;101183.13;5005056;28;20453;-76
2023/11/24 01:58:44;;;;;;;18.33;2.70;;;;;;;6.49;100.00;101279.69;4990406;28;20185;-76
2023/11/24 02:01:10;;;;;;;21.30;3.73;;;;;;;5.76;100.00;101140.88;4988046;28;20455;-77
2023/11/24 02:03:36;;;;;;;24.07;2.93;;;;;;;4.93;100.00;101048.34;5005062;28;20459;-76
2023/11/24 02:06:01;;;;;;;15.50;3.90;;;;;;;6.21;100.00;101204.47;5005143;28;20440;-76
2023/11/24 02:08:27;;;;;;;14.90;2.70;;;;;;;7.54;100.00;101424.16;5044836;22;20879;-72
2023/11/24 02:10:53;;;;;;;13.43;2.50;;;;;;;7.82;100.00;101446.06;5006984;28;20830;-72
2023/11/24 02:13:24;;;;;;;11.63;2.73;;;;;;;7.60;100.00;101402.13;4999172;28;20839;-72
2023/11/24 02:15:50;;;;;;;13.90;2.40;;;;;;;7.89;100.00;101456.91;5000089;28;20981;-72
2023/11/24 02:18:15;;;;;;;19.20;2.90;;;;;;;7.62;100.00;101429.50;4990291;28;20552;-72
2023/11/24 02:20:41;;;;;;;14.13;2.23;;;;;;;7.74;100.00;101456.72;4989316;28;20191;-72
2023/11/24 02:23:06;;;;;;;16.53;2.60;;;;;;;7.38;100.00;101424.13;4991307;28;20710;-72
2023/11/24 02:25:32;;;;;;;12.90;2.10;;;;;;;7.70;100.00;101490.94;4987181;28;20563;-72
2023/11/24 02:27:57;;;;;;;12.63;2.00;;;;;;;6.78;100.00;101438.41;4986093;28;20217;-72
2023/11/24 02:30:23;;;;;;;7.30;1.33;;;;;;;6.47;100.00;101403.44;4986058;28;20259;-72
2023/11/24 02:32:49;;;;;;;8.83;1.80;;;;;;;7.27;100.00;101518.66;4985928;28;20272;-73
2023/11/24 02:35:14;;;;;;;11.20;1.40;;;;;;;7.17;100.00;101532.09;4984184;28;20618;-73
2023/11/24 02:37:40;;;;;;;8.63;1.83;;;;;;;6.75;100.00;101508.88;4983608;28;20477;-73
2023/11/24 02:40:08;;;;;;;8.97;1.80;;;;;;;6.89;100.00;101559.97;4986154;28;20946;-73
2023/11/24 02:42:35;;;;;;;14.10;2.00;;;;;;;6.87;100.00;101545.97;4986390;28;20634;-72
2023/11/24 02:45:01;;;;;;;8.73;1.20;;;;;;;6.16;100.00;101453.66;4990988;28;20524;-73
2023/11/24 02:47:27;;;;;;;10.33;1.50;;;;;;;6.73;100.00;101572.19;4997739;28;20448;-72
2023/11/24 02:49:52;;;;;;;5.53;1.50;;;;;;;6.25;100.00;101549.50;4983282;28;20535;-72
2023/11/24 02:52:18;;;;;;;9.33;1.77;;;;;;;6.52;100.00;101561.03;4985654;28;20181;-72
2023/11/24 02:54:43;;;;;;;15.97;1.70;;;;;;;6.33;100.00;101567.38;4983941;28;20835;-72
2023/11/24 02:57:09;;;;;;;10.57;1.47;;;;;;;6.81;100.00;101592.75;4987096;28;20221;-72
2023/11/24 02:59:34;;;;;;;6.80;1.23;;;;;;;5.77;100.00;101468.13;4984556;28;20228;-72
2023/11/24 03:02:00;;;;;;;13.97;1.50;;;;;;;5.71;100.00;101478.56;4984746;28;20194;-73
2023/11/24 03:04:27;;;;;;;8.40;2.40;;;;;;;5.86;100.00;101458.41;4987047;28;20275;-72
2023/11/24 03:06:54;;;;;;;8.10;1.50;;;;;;;6.77;100.00;101565.56;4985711;28;20196;-73
2023/11/24 03:09:23;;;;;;;17.73;2.70;;;;;;;6.84;100.00;101573.78;4984071;28;20495;-73
2023/11/24 03:11:49;;;;;;;10.43;1.83;;;;;;;6.56;100.00;101525.91;4987547;28;20526;-72
2023/11/24 03:14:15;;;;;;;8.87;2.10;;;;;;;7.14;100.00;101599.13;4988560;28;20503;-72
2023/11/24 03:16:41;;;;;;;21.07;3.10;;;;;;;6.90;100.00;101575.81;4986367;28;20267;-73
2023/11/24 03:19:07;;;;;;;11.53;1.77;;;;;;;6.86;100.00;101565.63;4985280;28;20922;-73
2023/11/24 03:21:32;;;;;;;8.00;1.70;;;;;;;6.52;100.00;101531.72;4988550;28;20186;-72
2023/11/24 03:23:58;;;;;;;10.70;1.93;;;;;;;6.20;100.00;101445.22;4985496;28;20959;-72
2023/11/24 03:26:24;;;;;;;12.37;1.60;;;;;;;6.48;100.00;101530.34;4984787;28;20190;-73
2023/11/24 03:28:49;;;;;;;6.33;1.53;;;;;;;6.04;100.00;101515.16;4986773;28;20272;-72
2023/11/24 03:31:14;;;;;;;8.30;1.53;;;;;;;5.99;100.00;101500.63;4985192;28;20494;-72
2023/11/24 03:33:40;;;;;;;12.57;1.70;;;;;;;6.40;100.00;101564.94;4986515;28;20216;-72
2023/11/24 03:36:06;;;;;;;12.33;2.13;;;;;;;5.76;100.00;101436.34;4988616;28;20190;-72
2023/11/24 03:38:31;;;;;;;13.13;2.33;;;;;;;6.21;100.00;101539.28;4989133;28;20193;-72
2023/11/24 03:40:57;;;;;;;15.93;2.17;;;;;;;6.03;100.00;101518.81;4987015;28;20285;-73
2023/11/24 03:43:23;;;;;;;10.33;1.77;;;;;;;6.50;100.00;101563.03;4988338;28;20691;-73
2023/11/24 03:45:48;;;;;;;10.43;1.70;;;;;;;6.52;100.00;101563.72;4982130;28;20667;-73
2023/11/24 03:48:20;;;;;;;10.40;2.27;;;;;;;6.10;100.00;101516.38;4982704;28;20470;-73
2023/11/24 03:50:51;;;;;;;7.53;1.80;;;;;;;5.97;100.00;101553.22;4983545;28;20213;-73
2023/11/24 03:53:17;;;;;;;9.13;2.53;;;;;;;5.63;100.00;101458.84;4984353;28;20460;-73
2023/11/24 03:55:42;;;;;;;9.23;1.13;;;;;;;5.57;100.00;101421.34;4980705;28;20452;-73
2023/11/24 03:58:09;;;;;;;10.57;1.43;;;;;;;5.89;100.00;101504.19;4983932;28;20446;-73
2023/11/24 04:00:36;;;;;;;6.93;1.40;;;;;;;6.27;100.00;101525.34;4982924;28;20189;-73
2023/11/24 04:03:01;;;;;;;9.67;1.73;;;;;;;5.80;100.00;101433.22;4985762;28;20443;-73
2023/11/24 04:05:27;;;;;;;7.90;1.80;;;;;;;6.53;100.00;101499.56;4984512;28;21006;-72
2023/11/24 04:07:52;;;;;;;11.27;1.93;;;;;;;6.46;100.00;101487.88;4985329;28;21522;-73
2023/11/24 04:10:18;;;;;;;10.73;2.00;;;;;;;5.73;100.00;101340.81;4983393;28;20193;-73
2023/11/24 04:12:44;;;;;;;11.83;2.37;;;;;;;6.62;100.00;101452.47;4985128;28;20178;-73
2023/11/24 04:15:10;;;;;;;14.20;2.10;;;;;;;6.46;100.00;101409.75;4986679;28;20437;-73
2023/11/24 04:17:36;;;;;;;13.87;2.10;;;;;;;6.98;100.00;101479.03;4983391;28;20496;-73
2023/11/24 04:20:02;;;;;;;9.93;1.90;;;;;;;6.37;100.00;101422.19;4985351;28;20181;-72
2023/11/24 04:22:27;;;;;;;11.63;2.37;;;;;;;6.36;100.00;101427.66;4983853;28;20663;-73
2023/11/24 04:24:53;;;;;;;11.47;2.00;;;;;;;6.03;100.00;101361.69;4982101;28;20206;-73
2023/11/24 04:27:19;;;;;;;6.97;1.70;;;;;;;5.96;100.00;101373.97;4986023;28;20710;-72
2023/11/24 04:29:44;;;;;;;7.40;1.40;;;;;;;6.17;100.00;101463.34;4983597;28;20488;-72
2023/11/24 04:32:10;;;;;;;10.17;2.07;;;;;;;6.53;100.00;101466.75;4979285;28;20440;-72
2023/11/24 04:34:36;;;;;;;9.97;1.60;;;;;;;6.30;100.00;101429.97;4983812;28;20595;-72
2023/11/24 04:37:02;;;;;;;7.93;1.47;;;;;;;6.13;100.00;101441.50;4983181;28;20208;-72
2023/11/24 04:39:28;;;;;;;11.10;1.53;;;;;;;6.15;100.00;101454.66;4986230;28;20186;-72
2023/11/24 04:41:53;;;;;;;14.40;2.20;;;;;;;5.65;100.00;101432.09;4983385;28;20451;-72
2023/11/24 04:44:20;;;;;;;13.70;2.00;;;;;;;5.25;100.00;101396.09;4981551;28;20577;-72
2023/11/24 04:46:45;;;;;;;16.00;2.43;;;;;;;5.74;100.00;101459.63;4998559;28;20190;-72
2023/11/24 04:49:11;;;;;;;10.03;2.77;;;;;;;5.82;100.00;101488.97;4986080;28;20476;-72
2023/11/24 04:51:36;;;;;;;11.37;1.93;;;;;;;5.85;100.00;101462.06;4983561;28;20196;-72
2023/11/24 04:54:02;;;;;;;10.03;2.03;;;;;;;6.07;100.00;101480.22;4983301;28;20220;-73
2023/11/24 04:56:31;;;;;;;11.40;1.83;;;;;;;5.82;100.00;101452.53;4982073;28;20190;-72
2023/11/24 04:58:57;;;;;;;12.33;2.43;;;;;;;5.67;100.00;101456.72;4983138;28;20441;-73
2023/11/24 05:01:23;;;;;;;13.40;2.03;;;;;;;5.57;100.00;101389.44;4981970;28;20452;-72
2023/11/24 05:03:49;;;;;;;12.25;1.90;;;;;;;5.91;100.00;101442.81;4983066;28;20496;-73
2023/11/24 05:06:18;;;;;;;8.43;2.20;;;;;;;6.03;100.00;101472.72;4988338;28;20453;-73
2023/11/24 05:08:44;;;;;;;12.87;2.10;;;;;;;5.97;100.00;101481.31;4990748;28;20484;-72
2023/11/24 05:11:10;;;;;;;12.87;2.30;;;;;;;5.70;100.00;101431.63;4983102;28;20463;-72
2023/11/24 05:13:35;;;;;;;21.03;2.80;;;;;;;5.10;100.00;101312.50;4982642;28;20202;-72
2023/11/24 05:16:01;;;;;;;15.40;2.50;;;;;;;6.21;100.00;101486.00;4985767;28;20255;-73
2023/11/24 05:18:26;;;;;;;13.43;2.27;;;;;;;5.60;100.00;101375.81;4984765;28;20205;-73
2023/11/24 05:20:53;;;;;;;9.80;2.03;;;;;;;6.37;100.00;101467.50;4981899;28;20692;-73
2023/11/24 05:23:19;;;;;;;9.27;2.03;;;;;;;6.19;100.00;101440.03;4985294;28;20205;-73
2023/11/24 05:25:45;;;;;;;13.00;2.83;;;;;;;6.14;100.00;101459.16;4982103;28;20520;-73
2023/11/24 05:28:10;;;;;;;11.70;2.00;;;;;;;5.84;100.00;101399.13;4982627;28;20583;-73
2023/11/24 05:30:35;;;;;;;15.40;2.60;;;;;;;5.73;100.00;101418.84;4997945;28;20189;-73
2023/11/24 05:33:01;;;;;;;10.97;2.67;;;;;;;6.43;100.00;101482.03;4985017;28;20646;-73
2023/11/24 05:35:27;;;;;;;17.97;2.60;;;;;;;5.44;100.00;101316.16;4984999;28;20744;-73
2023/11/24 05:37:53;;;;;;;19.07;2.70;;;;;;;5.79;100.00;101361.50;4999802;28;20200;-73
2023/11/24 05:40:18;;;;;;;13.20;2.57;;;;;;;6.15;100.00;101449.34;4983663;28;20440;-73
2023/11/24 05:42:44;;;;;;;14.13;2.23;;;;;;;5.55;100.00;101324.88;4984882;28;20237;-72
2023/11/24 05:45:12;;;;;;;10.83;1.80;;;;;;;5.84;100.00;101376.03;4984436;28;20201;-73
2023/11/24 05:47:38;;;;;;;9.60;1.57;;;;;;;6.18;100.00;101411.75;4985432;28;20252;-73
2023/11/24 05:50:07;;;;;;;8.10;1.40;;;;;;;5.90;100.00;101331.94;4984959;28;20876;-72
2023/11/24 05:52:33;;;;;;;12.73;2.07;;;;;;;5.82;100.00;101315.94;4985123;28;20186;-72
2023/11/24 05:55:00;;;;;;;9.73;1.93;;;;;;;6.10;100.00;101338.78;4983916;28;20464;-72
2023/11/24 05:57:29;;;;;;;9.20;1.90;;;;;;;5.99;100.00;101303.56;4983932;28;20445;-73
2023/11/24 05:59:55;;;;;;;15.40;2.30;;;;;;;6.37;100.00;101312.13;4984041;28;20443;-72
2023/11/24 06:02:21;;;;;;;9.03;2.73;;;;;;;5.76;100.00;101218.06;4984798;28;20440;-73
2023/11/24 06:04:50;;;;;;;11.93;2.47;;;;;;;6.03;100.00;101241.88;4983177;28;20198;-72
2023/11/24 06:07:16;;;;;;;8.90;1.63;;;;;;;6.31;100.00;101293.13;4984272;28;20455;-72
2023/11/24 06:09:42;;;;;;;9.83;2.17;;;;;;;6.20;100.00;101261.44;4982889;28;20949;-73
2023/11/24 06:12:09;;;;;;;14.20;2.30;;;;;;;6.33;100.00;101253.84;4981778;28;20447;-73
2023/11/24 06:14:35;;;;;;;13.10;2.90;;;;;;;6.68;100.00;101275.06;4986663;28;20452;-72
2023/11/24 06:17:02;;;;;;;15.30;2.63;;;;;;;6.26;100.00;101210.16;4985888;28;20435;-73
2023/11/24 06:19:28;;;;;;;16.33;2.87;;;;;;;6.62;100.00;101249.91;4987104;28;20480;-73
2023/11/24 06:21:53;;;;;;;11.33;2.37;;;;;;;6.66;100.00;101229.09;4985465;28;20483;-73
2023/11/24 06:24:19;;;;;;;14.90;2.20;;;;;;;6.41;100.00;101169.56;4986404;28;20472;-73
2023/11/24 06:26:45;;;;;;;14.07;2.40;;;;;;;6.65;100.00;101198.91;4988686;28;20205;-73
2023/11/24 06:29:10;;;;;;;15.70;3.03;;;;;;;6.50;100.00;101179.25;4988570;28;20472;-73
2023/11/24 06:31:36;;;;;;;11.50;1.80;;;;;;;6.63;100.00;101168.13;4983774;28;20659;-72
2023/11/24 06:34:02;;;;;;;9.20;1.70;;;;;;;6.17;100.00;101098.44;4985629;28;20714;-73
2023/11/24 06:36:27;;;;;;;9.23;1.87;;;;;;;6.14;100.00;101066.81;4986262;28;20182;-73
2023/11/24 06:38:53;;;;;;;9.87;2.33;;;;;;;5.70;100.00;100979.16;4988405;28;20202;-73
2023/11/24 06:41:18;;;;;;;10.50;2.27;;;;;;;6.64;100.00;101125.28;4991234;28;20185;-73
2023/11/24 06:43:44;;;;;;;17.13;2.40;;;;;;;6.50;100.00;101109.97;4989723;28;20200;-73
2023/11/24 06:46:11;;;;;;;17.80;3.10;;;;;;;5.76;100.00;101019.28;4992100;28;20185;-73
2023/11/24 06:48:38;;;;;;;10.30;1.67;;;;;;;6.50;100.00;101149.94;4987331;28;20257;-73
2023/11/24 06:51:04;;;;;;;11.13;2.13;;;;;;;6.49;100.00;101143.78;5003880;28;20440;-73
2023/11/24 06:53:30;;;;;;;8.20;1.47;;;;;;;5.99;100.00;101079.91;4988933;28;20460;-73
2023/11/24 06:55:56;;;;;;;7.70;1.77;;;;;;;6.04;100.00;101101.56;4988789;28;20448;-73
2023/11/24 06:58:22;;;;;;;15.83;1.53;;;;;;;6.00;100.00;101141.00;4988472;28;20429;-72
2023/11/24 07:00:50;;;;;;;11.73;1.83;;;;;;;5.78;100.00;101122.91;4989343;28;20616;-72
2023/11/24 07:03:15;;;;;;;8.20;1.83;;;;;;;4.19;100.00;100925.63;4987913;28;20202;-73
2023/11/24 07:05:41;;;;;;;9.80;1.43;;;;;;;5.73;100.00;101141.19;4987988;28;20444;-73
2023/11/24 07:08:07;;;;;;;6.07;1.33;;;;;;;5.13;100.00;101035.66;4995908;28;20197;-73
2023/11/24 07:10:33;;;;;;;8.67;1.50;;;;;;;5.85;100.00;101146.06;4987573;28;20464;-73
2023/11/24 07:12:59;;;;;;;6.77;1.60;;;;;;;5.35;100.00;101066.16;4983416;28;20818;-73
2023/11/24 07:15:24;;;;;;;11.53;1.93;;;;;;;5.26;100.00;101069.78;4987465;28;20185;-73
2023/11/24 07:17:50;;;;;;;11.27;2.17;;;;;;;5.84;100.00;101127.59;4989761;28;20182;-73
2023/11/24 07:20:16;;;;;;;15.30;2.50;;;;;;;5.47;100.00;101094.19;4989644;28;20192;-73
2023/11/24 07:22:42;;;;;;;6.77;1.43;;;;;;;6.05;100.00;101175.16;4989451;28;20635;-73
2023/11/24 07:25:10;;;;;;;6.40;1.07;;;;;;;5.54;100.00;101089.88;4989307;28;20457;-73
2023/11/24 07:27:35;;;;;;;4.77;1.00;;;;;;;5.77;100.00;101127.41;4999848;28;20429;-74
2023/11/24 07:30:01;;;;;;;3.03;0.83;;;;;;;5.75;100.00;101152.50;4991017;28;20558;-73
2023/11/24 07:32:28;;;;;;;5.63;1.17;;;;;;;5.81;100.00;101189.97;4986868;28;20677;-72
2023/11/24 07:34:55;;;;;;;7.90;1.10;;;;;;;5.80;100.00;101172.34;4988447;28;20201;-73
2023/11/24 07:37:20;;;;;;;7.17;1.40;;;;;;;5.45;100.00;101096.16;4989895;28;20433;-73
2023/11/24 07:39:46;;;;;;;7.80;1.73;;;;;;;6.00;100.00;101167.63;4990341;28;20958;-73
2023/11/24 07:42:12;;;;;;;8.50;1.70;;;;;;;5.21;100.00;101030.38;4989397;28;20190;-72
2023/11/24 07:44:38;;;;;;;9.50;1.90;;;;;;;5.85;100.00;101140.75;5004656;28;20210;-72
2023/11/24 07:47:05;;;;;;;14.03;2.40;;;;;;;5.37;100.00;101049.06;4990513;28;20193;-72
2023/11/24 07:49:31;;;;;;;9.57;2.10;;;;;;;6.21;100.00;101151.22;4988593;28;20214;-73
2023/11/24 07:51:57;;;;;;;11.20;2.60;;;;;;;5.97;100.00;101117.34;5003724;28;20482;-73
2023/11/24 07:54:22;;;;;;;15.70;3.23;;;;;;;6.13;100.00;101124.53;4987774;28;20202;-72
2023/11/24 07:56:48;;;;;;;10.30;2.23;;;;;;;6.05;100.00;101096.09;4986953;28;20189;-73
2023/11/24 07:59:13;;;;;;;8.70;1.90;;;;;;;5.76;100.00;100994.50;4986495;28;20987;-73
2023/11/24 08:01:39;;;;;;;9.80;2.30;;;;;;;6.56;100.00;101058.66;4985184;28;20189;-73
2023/11/24 08:04:05;;;;;;;19.90;2.37;;;;;;;6.64;100.00;101052.50;4987234;28;20202;-73
2023/11/24 08:06:31;;;;;;;11.90;2.50;;;;;;;6.51;100.00;101024.53;4984698;28;20428;-73
2023/11/24 08:08:59;;;;;;;8.90;2.07;;;;;;;6.61;100.00;101026.19;4984395;28;21186;-73
2023/11/24 08:11:24;;;;;;;10.00;1.97;;;;;;;6.27;100.00;100965.91;4985284;28;20174;-73
2023/11/24 08:13:50;;;;;;;16.17;2.27;;;;;;;6.63;100.00;101048.19;4987801;28;20461;-73
2023/11/24 08:16:17;;;;;;;12.00;2.47;;;;;;;6.48;100.00;101018.69;4986215;28;20633;-73
2023/11/24 08:18:42;;;;;;;11.60;2.33;;;;;;;6.18;100.00;100967.75;4986195;28;20184;-72
2023/11/24 08:21:09;;;;;;;9.30;1.40;;;;;;;6.62;100.00;101019.84;4984508;28;20433;-72
2023/11/24 08:23:36;;;;;;;13.03;1.90;;;;;;;6.63;100.00;101008.19;4986479;28;20332;-73
2023/11/24 08:26:03;;;;;;;13.33;2.50;;;;;;;6.52;100.00;100996.88;4986406;28;20873;-72
2023/11/24 08:28:29;;;;;;;14.83;2.30;;;;;;;6.65;100.00;101003.50;4987652;28;20469;-72
2023/11/24 08:30:55;;;;;;;12.03;2.30;;;;;;;6.55;100.00;100980.53;4982739;28;20448;-73
2023/11/24 08:33:21;;;;;;;12.73;2.13;;;;;;;6.21;100.00;100918.66;4987432;28;20456;-72
2023/11/24 08:35:47;;;;;;;9.67;2.70;;;;;;;6.41;100.00;100943.09;4996515;28;20961;-72
2023/11/24 08:38:12;;;;;;;10.33;2.40;;;;;;;6.98;100.00;101006.97;4986608;28;20451;-72
2023/11/24 08:40:39;;;;;;;13.67;2.80;;;;;;;6.18;100.00;100889.69;4989267;28;20190;-72
2023/11/24 08:43:05;;;;;;;16.40;3.93;;;;;;;7.00;100.00;101012.94;5001237;28;20285;-72
2023/11/24 08:45:33;;;;;;;16.20;3.03;;;;;;;6.48;100.00;100930.75;4984247;28;20472;-72
2023/11/24 08:47:58;;;;;;;20.33;3.27;;;;;;;7.05;100.00;101023.09;4986607;28;20477;-72
2023/11/24 08:50:24;;;;;;;13.20;2.80;;;;;;;6.36;100.00;100934.78;4985486;28;20446;-72
2023/11/24 08:52:52;;;;;;;14.87;2.80;;;;;;;6.21;100.00;100924.78;4985253;28;20186;-72
2023/11/24 08:55:17;;;;;;;14.17;2.83;;;;;;;6.91;100.00;101003.28;4987303;28;20625;-72
2023/11/24 08:57:42;;;;;;;12.87;2.17;;;;;;;6.82;100.00;100989.16;4988330;28;20491;-73
2023/11/24 09:00:11;;;;;;;13.10;2.70;;;;;;;6.85;100.00;100998.66;4983838;28;20193;-72
2023/11/24 09:02:36;;;;;;;17.17;3.07;;;;;;;6.82;100.00;100994.47;4986744;28;20209;-73
2023/11/24 09:05:02;;;;;;;15.43;2.43;;;;;;;6.42;100.00;100977.59;4987744;28;20462;-72
2023/11/24 09:07:27;;;;;;;10.30;1.80;;;;;;;6.62;100.00;101014.50;4986965;28;20200;-72
2023/11/24 09:09:53;;;;;;;9.77;1.40;;;;;;;6.32;100.00;100988.38;4984498;28;20412;-72
2023/11/24 09:12:18;;;;;;;6.77;1.33;;;;;;;6.49;100.00;100988.38;4988010;28;20239;-72
2023/11/24 09:14:44;;;;;;;13.47;1.40;;;;;;;6.28;100.00;100935.63;4989730;28;20691;-72
2023/11/24 09:17:09;;;;;;;8.60;1.70;;;;;;;6.35;100.00;100923.28;4989553;28;20658;-72
2023/11/24 09:19:35;;;;;;;13.20;2.10;;;;;;;6.21;100.00;100908.81;4988906;28;20329;-72
2023/11/24 09:22:05;;;;;;;17.13;2.50;;;;;;;6.55;100.00;100972.53;4985924;28;20200;-72
2023/11/24 09:24:31;;;;;;;15.03;2.53;;;;;;;6.63;100.00;100976.22;4984841;28;20210;-72
2023/11/24 09:26:56;;;;;;;15.97;2.67;;;;;;;6.42;100.00;100947.41;4986455;28;20429;-72
2023/11/24 09:29:23;;;;;;;11.97;2.10;;;;;;;6.60;100.00;100912.59;4987013;28;20236;-72
2023/11/24 09:31:48;;;;;;;19.00;2.33;;;;;;;7.02;100.00;100953.09;4986060;28;20189;-73
2023/11/24 09:34:13;;;;;;;16.47;3.60;;;;;;;6.89;100.00;100910.16;4984673;28;20982;-72
2023/11/24 09:36:41;;;;;;;19.00;3.93;;;;;;;7.02;100.00;100955.75;4985653;28;20190;-72
2023/11/24 09:39:08;;;;;;;11.17;2.47;;;;;;;6.37;100.00;100960.44;4983439;28;20268;-72
2023/11/24 09:41:38;;;;;;;15.93;3.03;;;;;;;5.68;100.00;100902.16;4986389;28;20587;-72
2023/11/24 09:44:09;;;;;;;11.33;1.97;;;;;;;6.48;100.00;101013.34;4986399;28;20497;-72
2023/11/24 09:46:39;;;;;;;17.60;2.63;;;;;;;6.59;100.00;101015.69;5014612;28;20440;-73
2023/11/24 09:49:07;;;;;;;14.77;3.10;;;;;;;6.42;100.00;100982.91;4991875;28;20955;-72
2023/11/24 09:51:34;;;;;;;12.47;2.97;;;;;;;6.29;100.00;100938.13;4991062;28;20484;-73
2023/11/24 09:54:02;;;;;;;18.63;2.70;;;;;;;6.69;100.00;101045.66;4991316;28;20466;-72
2023/11/24 09:56:28;;;;;;;10.90;2.37;;;;;;;6.13;100.00;100993.22;4992760;28;21109;-73
2023/11/24 09:58:53;;;;;;;18.20;3.40;;;;;;;5.75;100.00;100939.56;5008370;28;20428;-72
2023/11/24 10:01:21;;;;;;;14.60;2.30;;;;;;;6.53;100.00;101057.16;4991382;28;20190;-73
2023/11/24 10:03:50;;;;;;;11.37;2.40;;;;;;;6.55;100.00;101095.13;4993182;28;20202;-72
2023/11/24 10:06:16;;;;;;;9.87;2.07;;;;;;;5.76;100.00;100990.00;4989634;28;20429;-72
2023/11/24 10:08:42;;;;;;;5.40;1.20;;;;;;;6.46;100.00;101089.97;5006828;28;20472;-72
2023/11/24 10:11:09;;;;;;;6.83;1.03;;;;;;;6.43;100.00;101075.16;4989506;28;20495;-72
2023/11/24 10:13:35;;;;;;;9.33;1.53;;;;;;;5.79;100.00;100975.53;4991832;28;20816;-72
2023/11/24 10:16:01;;;;;;;10.73;2.20;;;;;;;6.17;100.00;101007.88;4988075;28;20449;-72
2023/11/24 10:18:27;;;;;;;10.00;1.90;;;;;;;5.86;100.00;100955.22;4987552;28;20197;-73
2023/11/24 10:20:55;;;;;;;11.73;1.63;;;;;;;6.42;100.00;101052.19;4988831;28;20967;-72
2023/11/24 10:23:20;;;;;;;22.60;4.37;;;;;;;6.45;100.00;101040.34;4987518;28;20218;-72
2023/11/24 10:25:47;;;;;;;12.07;2.20;;;;;;;6.14;100.00;101001.06;4985782;28;20460;-72
2023/11/24 10:28:13;;;;;;;17.80;3.40;;;;;;;6.24;100.00;101040.84;4990238;28;20196;-73
2023/11/24 10:30:38;;;;;;;14.47;3.03;;;;;;;5.70;100.00;100952.53;4986866;28;20440;-73
2023/11/24 10:33:04;;;;;;;21.57;3.70;;;;;;;6.37;100.00;101045.69;4989782;28;20269;-73
2023/11/24 10:35:30;;;;;;;25.00;4.33;;;;;;;6.38;100.00;101045.50;4989090;28;20178;-72
2023/11/24 10:37:57;;;;;;;12.53;2.10;;;;;;;5.99;100.00;101003.53;4989964;28;20488;-72
2023/11/24 10:40:24;;;;;;;9.17;1.57;;;;;;;5.91;100.00;101064.72;4986997;28;20182;-72
2023/11/24 10:42:53;;;;;;;3.60;0.70;;;;;;;5.10;100.00;100935.78;4990329;28;20455;-72
2023/11/24 10:45:21;;;;;;;10.10;1.30;;;;;;;6.03;100.00;101033.34;4989333;28;20437;-72
2023/11/24 10:48:08;;;;;;;6.33;1.00;;;;;;;6.13;100.00;101038.50;4989871;28;20468;-72
2023/11/24 10:50:38;;;;;;;5.60;1.00;;;;;;;5.31;100.00;100910.56;4988993;28;20503;-72
2023/11/24 10:53:28;;;;;;;9.43;1.73;;;;;;;6.08;100.00;101021.19;4988856;28;20451;-72
2023/11/24 10:55:54;;;;;;;8.10;1.60;;;;;;;6.18;100.00;101006.88;4990728;28;21004;-72
2023/11/24 10:58:21;;;;;;;11.87;1.57;;;;;;;6.31;100.00;101009.88;5005280;28;20436;-72
2023/11/24 11:00:47;;;;;;;9.23;1.67;;;;;;;6.55;100.00;101001.03;5005522;28;20454;-72
2023/11/24 11:03:15;;;;;;;17.43;2.50;;;;;;;6.01;100.00;100897.69;4988914;28;20471;-72
2023/11/24 11:05:56;;;;;;;23.07;2.73;;;;;;;6.67;100.00;101002.34;4985705;28;20437;-72
2023/11/24 11:08:34;;;;;;;14.17;2.50;;;;;;;5.37;100.00;100862.03;4983463;28;21001;-72
2023/11/24 11:11:22;;;;;;;8.40;2.00;;;;;;;6.11;100.00;101030.69;4988935;28;20448;-72
2023/11/24 11:13:50;;;;;;;9.60;1.40;;;;;;;5.80;100.00;101043.72;4991686;28;20473;-73
2023/11/24 11:16:19;;;;;;;6.17;1.77;;;;;;;4.88;100.00;100929.19;4991149;28;20437;-73